Private Wetterstation Sandau
Wetterdaten: Freitag, 29.06.2012
Datum Zeit Temp. A. Feuchte A. Luftdruck Regen Wind Richtung Richtung Taupunkt Windchill
29.06.2012 00:01 18,9 C 79 % 1011,7 hPa 0,0 l/m 6,1 km/h (2 Bft) O-SO 112 15,2 C 18,9 C
29.06.2012 00:06 18,8 C 79 % 1011,8 hPa 0,0 l/m 3,6 km/h (1 Bft) O-SO 112 15,1 C 18,8 C
29.06.2012 00:11 18,8 C 79 % 1011,8 hPa 0,0 l/m 5,8 km/h (2 Bft) O 90 15,1 C 18,8 C
29.06.2012 00:16 18,7 C 79 % 1011,8 hPa 0,0 l/m 2,9 km/h (1 Bft) O-SO 112 15,0 C 18,7 C
29.06.2012 00:21 18,6 C 79 % 1011,7 hPa 0,0 l/m 3,6 km/h (1 Bft) O 90 14,9 C 18,6 C
29.06.2012 00:26 18,6 C 79 % 1011,6 hPa 0,0 l/m 5,4 km/h (1 Bft) O-SO 112 14,9 C 18,6 C
29.06.2012 00:31 18,5 C 80 % 1011,6 hPa 0,0 l/m 7,9 km/h (2 Bft) O-SO 112 15,0 C 18,5 C
29.06.2012 00:36 18,4 C 80 % 1011,6 hPa 0,0 l/m 4,7 km/h (1 Bft) O-NO 67 14,9 C 18,4 C
29.06.2012 00:41 18,4 C 80 % 1011,5 hPa 0,0 l/m 4,7 km/h (1 Bft) SO 135 14,9 C 18,4 C
29.06.2012 00:46 18,4 C 80 % 1011,6 hPa 0,0 l/m 9,0 km/h (2 Bft) O-NO 67 14,9 C 18,4 C
29.06.2012 00:51 18,4 C 80 % 1011,6 hPa 0,0 l/m 6,1 km/h (2 Bft) O-NO 67 14,9 C 18,4 C
29.06.2012 00:56 18,4 C 80 % 1011,7 hPa 0,0 l/m 4,3 km/h (1 Bft) SO 135 14,9 C 18,4 C
29.06.2012 01:01 18,4 C 81 % 1011,6 hPa 0,0 l/m 6,1 km/h (2 Bft) O 90 15,1 C 18,4 C
29.06.2012 01:06 18,4 C 81 % 1011,7 hPa 0,0 l/m 5,4 km/h (1 Bft) SO 135 15,1 C 18,4 C
29.06.2012 01:11 18,4 C 81 % 1011,7 hPa 0,0 l/m 2,9 km/h (1 Bft) O 90 15,1 C 18,4 C
29.06.2012 01:16 18,3 C 81 % 1011,6 hPa 0,0 l/m 9,7 km/h (2 Bft) O-SO 112 15,0 C 18,3 C
29.06.2012 01:21 18,3 C 81 % 1011,6 hPa 0,0 l/m 2,9 km/h (1 Bft) SO 135 15,0 C 18,3 C
29.06.2012 01:26 18,3 C 81 % 1011,5 hPa 0,0 l/m 3,6 km/h (1 Bft) O-SO 112 15,0 C 18,3 C
29.06.2012 01:31 18,3 C 81 % 1011,4 hPa 0,0 l/m 4,0 km/h (1 Bft) SO 135 15,0 C 18,3 C
29.06.2012 01:36 18,3 C 81 % 1011,4 hPa 0,0 l/m 1,4 km/h (1 Bft) S-SO 157 15,0 C 18,3 C
29.06.2012 01:41 18,3 C 81 % 1011,3 hPa 0,0 l/m 5,0 km/h (1 Bft) S-SO 157 15,0 C 18,3 C
29.06.2012 01:46 18,2 C 81 % 1011,3 hPa 0,0 l/m 4,0 km/h (1 Bft) O-SO 112 14,9 C 18,2 C
29.06.2012 01:51 18,2 C 81 % 1011,3 hPa 0,0 l/m 5,8 km/h (2 Bft) O 90 14,9 C 18,2 C
29.06.2012 01:56 18,1 C 81 % 1011,3 hPa 0,0 l/m 4,3 km/h (1 Bft) O-SO 112 14,8 C 18,1 C
29.06.2012 02:01 18,1 C 82 % 1011,1 hPa 0,0 l/m 3,6 km/h (1 Bft) SO 135 15,0 C 18,1 C
29.06.2012 02:06 18,1 C 82 % 1011,1 hPa 0,0 l/m 2,2 km/h (1 Bft) O 90 15,0 C 18,1 C
29.06.2012 02:11 18,1 C 82 % 1011,3 hPa 0,0 l/m 2,2 km/h (1 Bft) S-SO 157 15,0 C 18,1 C
29.06.2012 02:16 18,1 C 82 % 1011,2 hPa 0,0 l/m 4,0 km/h (1 Bft) O-SO 112 15,0 C 18,1 C
29.06.2012 02:21 18,1 C 82 % 1011,2 hPa 0,0 l/m 2,5 km/h (1 Bft) SO 135 15,0 C 18,1 C
29.06.2012 02:26 18,0 C 82 % 1011,1 hPa 0,0 l/m 5,0 km/h (1 Bft) O 90 14,9 C 18,0 C
29.06.2012 02:31 17,9 C 82 % 1011,1 hPa 0,0 l/m 5,4 km/h (1 Bft) O-SO 112 14,8 C 17,9 C
29.06.2012 02:36 17,9 C 83 % 1011,0 hPa 0,0 l/m 5,0 km/h (1 Bft) O 90 15,0 C 17,9 C
29.06.2012 02:41 17,9 C 83 % 1010,9 hPa 0,0 l/m 3,6 km/h (1 Bft) SO 135 15,0 C 17,9 C
29.06.2012 02:46 17,9 C 83 % 1010,9 hPa 0,0 l/m 0,0 km/h (0 Bft) O-SO 112 15,0 C 17,9 C
29.06.2012 02:51 17,9 C 83 % 1011,0 hPa 0,0 l/m 6,1 km/h (2 Bft) S-SO 157 15,0 C 17,9 C
29.06.2012 02:56 17,9 C 83 % 1010,9 hPa 0,0 l/m 0,0 km/h (0 Bft) SO 135 15,0 C 17,9 C
29.06.2012 03:01 17,8 C 83 % 1010,8 hPa 0,0 l/m 3,6 km/h (1 Bft) SO 135 14,9 C 17,8 C
29.06.2012 03:06 17,8 C 83 % 1010,8 hPa 0,0 l/m 3,2 km/h (1 Bft) O 90 14,9 C 17,8 C
29.06.2012 03:11 17,6 C 83 % 1010,8 hPa 0,0 l/m 4,3 km/h (1 Bft) SO 135 14,7 C 17,6 C
29.06.2012 03:16 17,6 C 83 % 1010,8 hPa 0,0 l/m 4,0 km/h (1 Bft) SO 135 14,7 C 17,6 C
29.06.2012 03:21 17,5 C 84 % 1010,8 hPa 0,0 l/m 5,0 km/h (1 Bft) O-SO 112 14,8 C 17,5 C
29.06.2012 03:26 17,4 C 84 % 1010,8 hPa 0,0 l/m 2,5 km/h (1 Bft) O 90 14,7 C 17,4 C
29.06.2012 03:31 17,4 C 84 % 1010,8 hPa 0,0 l/m 1,8 km/h (1 Bft) O 90 14,7 C 17,4 C
29.06.2012 03:36 17,4 C 84 % 1010,7 hPa 0,0 l/m 8,6 km/h (2 Bft) O 90 14,7 C 17,4 C
29.06.2012 03:41 17,3 C 84 % 1010,6 hPa 0,0 l/m 5,8 km/h (2 Bft) O 90 14,6 C 17,3 C
29.06.2012 03:46 17,3 C 84 % 1010,5 hPa 0,0 l/m 4,0 km/h (1 Bft) O 90 14,6 C 17,3 C
29.06.2012 03:51 17,3 C 84 % 1010,5 hPa 0,0 l/m 4,0 km/h (1 Bft) O-NO 67 14,6 C 17,3 C
29.06.2012 03:56 17,3 C 85 % 1010,4 hPa 0,0 l/m 8,3 km/h (2 Bft) SO 135 14,8 C 17,3 C
29.06.2012 04:01 17,3 C 85 % 1010,5 hPa 0,0 l/m 10,1 km/h (2 Bft) SO 135 14,8 C 17,3 C
29.06.2012 04:06 17,3 C 85 % 1010,4 hPa 0,0 l/m 3,6 km/h (1 Bft) O-NO 67 14,8 C 17,3 C
29.06.2012 04:11 17,3 C 85 % 1010,4 hPa 0,0 l/m 5,4 km/h (1 Bft) O-SO 112 14,8 C 17,3 C
29.06.2012 04:16 17,3 C 85 % 1010,2 hPa 0,0 l/m 4,7 km/h (1 Bft) O 90 14,8 C 17,3 C
29.06.2012 04:21 17,3 C 85 % 1010,1 hPa 0,0 l/m 7,6 km/h (2 Bft) O-SO 112 14,8 C 17,3 C
29.06.2012 04:26 17,3 C 85 % 1010,0 hPa 0,0 l/m 2,9 km/h (1 Bft) O 90 14,8 C 17,3 C
29.06.2012 04:31 17,3 C 85 % 1010,0 hPa 0,0 l/m 5,0 km/h (1 Bft) O-SO 112 14,8 C 17,3 C
29.06.2012 04:36 17,3 C 85 % 1009,9 hPa 0,0 l/m 5,8 km/h (2 Bft) O 90 14,8 C 17,3 C
29.06.2012 04:41 17,3 C 85 % 1009,9 hPa 0,0 l/m 6,8 km/h (2 Bft) O 90 14,8 C 17,3 C
29.06.2012 04:46 17,3 C 85 % 1009,9 hPa 0,0 l/m 4,0 km/h (1 Bft) O-SO 112 14,8 C 17,3 C
29.06.2012 04:51 17,3 C 85 % 1009,9 hPa 0,0 l/m 4,0 km/h (1 Bft) SO 135 14,8 C 17,3 C
29.06.2012 04:56 17,3 C 85 % 1009,9 hPa 0,0 l/m 7,2 km/h (2 Bft) O-SO 112 14,8 C 17,3 C
29.06.2012 05:01 17,3 C 86 % 1009,8 hPa 0,0 l/m 7,6 km/h (2 Bft) SO 135 14,9 C 17,3 C
29.06.2012 05:06 17,3 C 86 % 1009,8 hPa 0,0 l/m 4,0 km/h (1 Bft) SO 135 14,9 C 17,3 C
29.06.2012 05:11 17,3 C 86 % 1009,8 hPa 0,0 l/m 3,2 km/h (1 Bft) SO 135 14,9 C 17,3 C
29.06.2012 05:16 17,3 C 86 % 1009,8 hPa 0,0 l/m 4,3 km/h (1 Bft) S-SO 157 14,9 C 17,3 C
29.06.2012 05:21 17,2 C 86 % 1009,9 hPa 0,0 l/m 2,9 km/h (1 Bft) S-SO 157 14,8 C 17,2 C
29.06.2012 05:26 17,3 C 86 % 1010,0 hPa 0,0 l/m 4,3 km/h (1 Bft) O-SO 112 14,9 C 17,3 C
29.06.2012 05:31 17,3 C 86 % 1010,1 hPa 0,0 l/m 7,6 km/h (2 Bft) SO 135 14,9 C 17,3 C
29.06.2012 05:36 17,2 C 86 % 1010,0 hPa 0,0 l/m 5,0 km/h (1 Bft) O 90 14,8 C 17,2 C
29.06.2012 05:41 17,2 C 86 % 1009,9 hPa 0,0 l/m 2,9 km/h (1 Bft) O-SO 112 14,8 C 17,2 C
29.06.2012 05:46 17,2 C 86 % 1009,9 hPa 0,0 l/m 4,7 km/h (1 Bft) O-SO 112 14,8 C 17,2 C
29.06.2012 05:51 17,2 C 86 % 1009,8 hPa 0,0 l/m 1,4 km/h (1 Bft) SO 135 14,8 C 17,2 C
29.06.2012 05:56 17,3 C 86 % 1009,6 hPa 0,0 l/m 2,2 km/h (1 Bft) O 90 14,9 C 17,3 C
29.06.2012 06:01 17,4 C 86 % 1009,5 hPa 0,0 l/m 3,2 km/h (1 Bft) O-SO 112 15,0 C 17,4 C
29.06.2012 06:06 17,8 C 86 % 1009,4 hPa 0,0 l/m 4,7 km/h (1 Bft) O-SO 112 15,4 C 17,8 C
29.06.2012 06:11 18,1 C 85 % 1009,5 hPa 0,0 l/m 2,9 km/h (1 Bft) S-SO 157 15,5 C 18,1 C
29.06.2012 06:16 18,4 C 84 % 1009,7 hPa 0,0 l/m 3,6 km/h (1 Bft) SO 135 15,6 C 18,4 C
29.06.2012 06:21 18,4 C 83 % 1009,7 hPa 0,0 l/m 5,0 km/h (1 Bft) O-SO 112 15,5 C 18,4 C
29.06.2012 06:26 18,4 C 83 % 1009,7 hPa 0,0 l/m 6,5 km/h (2 Bft) O-SO 112 15,5 C 18,4 C
29.06.2012 06:31 18,4 C 83 % 1009,5 hPa 0,0 l/m 5,0 km/h (1 Bft) O-SO 112 15,5 C 18,4 C
29.06.2012 06:36 18,4 C 84 % 1009,3 hPa 0,0 l/m 3,2 km/h (1 Bft) O 90 15,6 C 18,4 C
29.06.2012 06:41 18,6 C 83 % 1009,2 hPa 0,0 l/m 8,3 km/h (2 Bft) S-SO 157 15,7 C 18,6 C
29.06.2012 06:46 18,6 C 84 % 1009,2 hPa 0,0 l/m 2,5 km/h (1 Bft) O-SO 112 15,8 C 18,6 C
29.06.2012 06:51 18,5 C 83 % 1009,3 hPa 0,0 l/m 2,9 km/h (1 Bft) S-SO 157 15,6 C 18,5 C
29.06.2012 06:56 18,5 C 83 % 1009,4 hPa 0,0 l/m 1,4 km/h (1 Bft) O-SO 112 15,6 C 18,5 C
29.06.2012 07:01 18,5 C 83 % 1009,3 hPa 0,0 l/m 0,0 km/h (0 Bft) SO 135 15,6 C 18,5 C
29.06.2012 07:06 18,6 C 84 % 1009,3 hPa 0,0 l/m 4,3 km/h (1 Bft) O-SO 112 15,8 C 18,6 C
29.06.2012 07:11 18,8 C 84 % 1009,3 hPa 0,0 l/m 2,9 km/h (1 Bft) O-SO 112 16,0 C 18,8 C
29.06.2012 07:16 18,9 C 84 % 1009,4 hPa 0,0 l/m 2,5 km/h (1 Bft) S-SO 157 16,1 C 18,9 C
29.06.2012 07:21 18,9 C 84 % 1009,4 hPa 0,0 l/m 4,3 km/h (1 Bft) O-SO 112 16,1 C 18,9 C
29.06.2012 07:26 19,1 C 84 % 1009,4 hPa 0,0 l/m 5,4 km/h (1 Bft) O 90 16,3 C 19,1 C
29.06.2012 07:31 19,2 C 84 % 1009,6 hPa 0,0 l/m 2,9 km/h (1 Bft) O-SO 112 16,4 C 19,2 C
29.06.2012 07:36 19,5 C 83 % 1009,8 hPa 0,0 l/m 5,0 km/h (1 Bft) SO 135 16,5 C 19,5 C
29.06.2012 07:41 19,6 C 82 % 1009,7 hPa 0,0 l/m 2,2 km/h (1 Bft) SO 135 16,4 C 19,6 C
29.06.2012 07:46 19,9 C 82 % 1009,7 hPa 0,0 l/m 3,2 km/h (1 Bft) SO 135 16,7 C 19,9 C
29.06.2012 07:51 19,9 C 81 % 1009,6 hPa 0,0 l/m 8,3 km/h (2 Bft) S-SO 157 16,5 C 19,9 C
29.06.2012 07:56 20,1 C 81 % 1009,5 hPa 0,0 l/m 6,5 km/h (2 Bft) S-SO 157 16,7 C 20,1 C
29.06.2012 08:01 20,3 C 80 % 1009,6 hPa 0,0 l/m 5,8 km/h (2 Bft) O-SO 112 16,7 C 20,3 C
29.06.2012 08:06 20,5 C 80 % 1009,4 hPa 0,0 l/m 3,6 km/h (1 Bft) O-SO 112 16,9 C 20,5 C
29.06.2012 08:11 20,9 C 79 % 1009,7 hPa 0,0 l/m 10,1 km/h (2 Bft) O-SO 112 17,1 C 20,9 C
29.06.2012 08:16 21,3 C 78 % 1009,5 hPa 0,0 l/m 7,2 km/h (2 Bft) S-SO 157 17,3 C 21,3 C
29.06.2012 08:21 21,6 C 77 % 1009,7 hPa 0,0 l/m 4,3 km/h (1 Bft) S-SO 157 17,4 C 21,6 C
29.06.2012 08:26 22,0 C 76 % 1009,8 hPa 0,0 l/m 2,9 km/h (1 Bft) S 180 17,6 C 22,0 C
29.06.2012 08:31 22,4 C 75 % 1009,8 hPa 0,0 l/m 11,2 km/h (2 Bft) S-SO 157 17,7 C 22,4 C
29.06.2012 08:36 22,6 C 74 % 1009,7 hPa 0,0 l/m 0,0 km/h (0 Bft) S-SW 202 17,7 C 22,6 C
29.06.2012 08:41 22,8 C 74 % 1009,8 hPa 0,0 l/m 3,6 km/h (1 Bft) S-SW 202 17,9 C 22,8 C
29.06.2012 08:46 22,8 C 73 % 1009,9 hPa 0,0 l/m 5,4 km/h (1 Bft) S-SW 202 17,7 C 22,8 C
29.06.2012 08:51 22,8 C 74 % 1009,8 hPa 0,0 l/m 4,7 km/h (1 Bft) S 180 17,9 C 22,8 C
29.06.2012 08:56 22,6 C 73 % 1009,9 hPa 0,0 l/m 2,5 km/h (1 Bft) S-SW 202 17,5 C 22,6 C
29.06.2012 09:01 22,4 C 74 % 1009,9 hPa 0,0 l/m 4,3 km/h (1 Bft) S 180 17,5 C 22,4 C
29.06.2012 09:06 22,3 C 74 % 1009,9 hPa 0,0 l/m 3,6 km/h (1 Bft) S 180 17,4 C 22,3 C
29.06.2012 09:11 22,3 C 74 % 1010,0 hPa 0,0 l/m 7,6 km/h (2 Bft) S-SW 202 17,4 C 22,3 C
29.06.2012 09:16 22,3 C 74 % 1010,0 hPa 0,0 l/m 4,0 km/h (1 Bft) S 180 17,4 C 22,3 C
29.06.2012 09:21 22,4 C 74 % 1010,1 hPa 0,0 l/m 5,8 km/h (2 Bft) S-SW 202 17,5 C 22,4 C
29.06.2012 09:26 22,5 C 75 % 1010,1 hPa 0,0 l/m 0,0 km/h (0 Bft) O-SO 112 17,8 C 22,5 C
29.06.2012 09:31 22,5 C 74 % 1010,1 hPa 0,0 l/m 2,2 km/h (1 Bft) S 180 17,6 C 22,5 C
29.06.2012 09:36 22,5 C 74 % 1010,2 hPa 0,0 l/m 4,7 km/h (1 Bft) S-SW 202 17,6 C 22,5 C
29.06.2012 09:41 22,5 C 75 % 1010,3 hPa 0,0 l/m 3,6 km/h (1 Bft) S-SW 202 17,8 C 22,5 C
29.06.2012 09:46 22,7 C 75 % 1010,3 hPa 0,0 l/m 4,0 km/h (1 Bft) W 270 18,0 C 22,7 C
29.06.2012 09:51 22,9 C 74 % 1010,2 hPa 0,0 l/m 2,2 km/h (1 Bft) W-SW 247 18,0 C 22,9 C
29.06.2012 09:56 23,0 C 74 % 1010,4 hPa 0,0 l/m 5,0 km/h (1 Bft) S-SW 202 18,1 C 23,0 C
29.06.2012 10:01 22,9 C 74 % 1010,6 hPa 0,0 l/m 4,7 km/h (1 Bft) S 180 18,0 C 22,9 C
29.06.2012 10:06 22,9 C 74 % 1010,5 hPa 0,0 l/m 4,0 km/h (1 Bft) S 180 18,0 C 22,9 C
29.06.2012 10:11 22,9 C 74 % 1010,5 hPa 0,0 l/m 2,9 km/h (1 Bft) S-SO 157 18,0 C 22,9 C
29.06.2012 10:16 22,9 C 74 % 1010,4 hPa 0,0 l/m 1,4 km/h (1 Bft) S 180 18,0 C 22,9 C
29.06.2012 10:21 22,9 C 74 % 1010,3 hPa 0,0 l/m 3,2 km/h (1 Bft) S-SW 202 18,0 C 22,9 C
29.06.2012 10:26 22,8 C 74 % 1010,5 hPa 0,0 l/m 4,7 km/h (1 Bft) SW 225 17,9 C 22,8 C
29.06.2012 10:31 22,8 C 74 % 1010,5 hPa 0,0 l/m 0,0 km/h (0 Bft) S-SW 202 17,9 C 22,8 C
29.06.2012 10:36 22,8 C 74 % 1010,4 hPa 0,0 l/m 0,0 km/h (0 Bft) S 180 17,9 C 22,8 C
29.06.2012 10:41 22,7 C 74 % 1010,3 hPa 0,0 l/m 1,4 km/h (1 Bft) S-SO 157 17,8 C 22,7 C
29.06.2012 10:46 22,6 C 74 % 1010,2 hPa 0,0 l/m 0,0 km/h (0 Bft) S-SW 202 17,7 C 22,6 C
29.06.2012 10:51 22,7 C 75 % 1010,2 hPa 0,0 l/m 0,0 km/h (0 Bft) S 180 18,0 C 22,7 C
29.06.2012 10:56 22,8 C 75 % 1010,1 hPa 0,0 l/m 2,2 km/h (1 Bft) S 180 18,1 C 22,8 C
29.06.2012 11:01 22,8 C 75 % 1010,1 hPa 0,0 l/m 1,4 km/h (1 Bft) SO 135 18,1 C 22,8 C
29.06.2012 11:06 23,0 C 75 % 1010,1 hPa 0,0 l/m 4,3 km/h (1 Bft) S-SO 157 18,3 C 23,0 C
29.06.2012 11:11 23,2 C 74 % 1010,0 hPa 0,0 l/m 4,7 km/h (1 Bft) S-SO 157 18,3 C 23,2 C
29.06.2012 11:16 23,4 C 74 % 1009,9 hPa 0,0 l/m 1,8 km/h (1 Bft) S 180 18,5 C 23,4 C
29.06.2012 11:21 23,8 C 73 % 1010,0 hPa 0,0 l/m 2,5 km/h (1 Bft) SO 135 18,7 C 23,8 C
29.06.2012 11:26 24,1 C 72 % 1009,9 hPa 0,0 l/m 6,5 km/h (2 Bft) SW 225 18,7 C 24,1 C
29.06.2012 11:31 24,3 C 70 % 1009,8 hPa 0,0 l/m 3,2 km/h (1 Bft) SO 135 18,5 C 24,3 C
29.06.2012 11:36 24,5 C 69 % 1009,8 hPa 0,0 l/m 2,9 km/h (1 Bft) SO 135 18,4 C 24,5 C
29.06.2012 11:41 24,8 C 68 % 1009,8 hPa 0,0 l/m 4,3 km/h (1 Bft) S-SW 202 18,5 C 24,8 C
29.06.2012 11:46 24,9 C 68 % 1009,8 hPa 0,0 l/m 0,0 km/h (0 Bft) W-SW 247 18,6 C 24,9 C
29.06.2012 11:51 25,2 C 66 % 1009,9 hPa 0,0 l/m 0,0 km/h (0 Bft) S 180 18,4 C 25,2 C
29.06.2012 11:56 25,4 C 66 % 1010,0 hPa 0,0 l/m 5,8 km/h (2 Bft) S-SO 157 18,6 C 25,4 C
29.06.2012 12:01 25,6 C 65 % 1009,9 hPa 0,0 l/m 4,0 km/h (1 Bft) S-SO 157 18,5 C 25,6 C
29.06.2012 12:06 25,6 C 65 % 1009,9 hPa 0,0 l/m 5,8 km/h (2 Bft) S-SO 157 18,5 C 25,6 C
29.06.2012 12:11 25,9 C 65 % 1009,9 hPa 0,0 l/m 6,5 km/h (2 Bft) S-SW 202 18,8 C 25,9 C
29.06.2012 12:16 26,1 C 64 % 1009,9 hPa 0,0 l/m 4,0 km/h (1 Bft) SO 135 18,7 C 26,1 C
29.06.2012 12:21 26,5 C 63 % 1009,8 hPa 0,0 l/m 6,5 km/h (2 Bft) O 90 18,9 C 26,5 C
29.06.2012 12:26 26,9 C 62 % 1009,7 hPa 0,0 l/m 3,2 km/h (1 Bft) SW 225 19,0 C 26,9 C
29.06.2012 12:31 27,3 C 61 % 1009,8 hPa 0,0 l/m 9,7 km/h (2 Bft) S-SW 202 19,1 C 27,3 C
29.06.2012 12:36 27,4 C 60 % 1010,0 hPa 0,0 l/m 8,3 km/h (2 Bft) S-SO 157 18,9 C 27,4 C
29.06.2012 12:41 27,3 C 59 % 1010,0 hPa 0,0 l/m 5,8 km/h (2 Bft) S-SO 157 18,6 C 27,3 C
29.06.2012 12:46 27,3 C 59 % 1009,9 hPa 0,0 l/m 4,0 km/h (1 Bft) S 180 18,6 C 27,3 C
29.06.2012 12:51 27,4 C 59 % 1009,8 hPa 0,0 l/m 6,5 km/h (2 Bft) S 180 18,7 C 27,4 C
29.06.2012 12:56 27,6 C 58 % 1009,9 hPa 0,0 l/m 5,8 km/h (2 Bft) O 90 18,6 C 27,6 C
29.06.2012 13:01 27,8 C 58 % 1009,9 hPa 0,0 l/m 5,8 km/h (2 Bft) S-SO 157 18,8 C 27,8 C
29.06.2012 13:06 27,9 C 58 % 1009,6 hPa 0,0 l/m 9,0 km/h (2 Bft) S-SW 202 18,9 C 27,9 C
29.06.2012 13:11 27,9 C 58 % 1009,8 hPa 0,0 l/m 2,9 km/h (1 Bft) S-SO 157 18,9 C 27,9 C
29.06.2012 13:16 27,9 C 58 % 1009,7 hPa 0,0 l/m 10,1 km/h (2 Bft) S 180 18,9 C 27,9 C
29.06.2012 13:21 28,2 C 57 % 1009,6 hPa 0,0 l/m 13,7 km/h (3 Bft) S-SW 202 18,9 C 28,2 C
29.06.2012 13:26 28,3 C 55 % 1009,5 hPa 0,0 l/m 4,7 km/h (1 Bft) S 180 18,4 C 28,3 C
29.06.2012 13:31 28,5 C 55 % 1009,4 hPa 0,0 l/m 2,2 km/h (1 Bft) S 180 18,6 C 28,5 C
29.06.2012 13:36 28,6 C 54 % 1009,6 hPa 0,0 l/m 9,0 km/h (2 Bft) W-SW 247 18,4 C 28,6 C
29.06.2012 13:41 28,9 C 53 % 1009,5 hPa 0,0 l/m 6,1 km/h (2 Bft) W-SW 247 18,3 C 28,9 C
29.06.2012 13:46 29,0 C 52 % 1009,7 hPa 0,0 l/m 5,8 km/h (2 Bft) S-SW 202 18,1 C 29,0 C
29.06.2012 13:51 29,2 C 52 % 1009,6 hPa 0,0 l/m 0,0 km/h (0 Bft) W-SW 247 18,3 C 29,2 C
29.06.2012 13:56 29,4 C 52 % 1009,7 hPa 0,0 l/m 4,7 km/h (1 Bft) S-SW 202 18,5 C 29,4 C
29.06.2012 14:01 29,6 C 52 % 1009,7 hPa 0,0 l/m 4,7 km/h (1 Bft) S 180 18,7 C 29,6 C
29.06.2012 14:06 29,6 C 52 % 1009,6 hPa 0,0 l/m 9,0 km/h (2 Bft) S 180 18,7 C 29,6 C
29.06.2012 14:11 29,6 C 52 % 1009,6 hPa 0,0 l/m 13,7 km/h (3 Bft) W-SW 247 18,7 C 29,6 C
29.06.2012 14:16 29,7 C 52 % 1009,8 hPa 0,0 l/m 7,9 km/h (2 Bft) S-SO 157 18,8 C 29,7 C
29.06.2012 14:21 29,9 C 51 % 1009,7 hPa 0,0 l/m 5,4 km/h (1 Bft) SO 135 18,6 C 29,9 C
29.06.2012 14:26 30,2 C 50 % 1009,8 hPa 0,0 l/m 8,3 km/h (2 Bft) S-SO 157 18,6 C 30,2 C
29.06.2012 14:31 30,4 C 48 % 1009,6 hPa 0,0 l/m 11,5 km/h (2 Bft) S-SW 202 18,1 C 30,4 C
29.06.2012 14:36 30,5 C 48 % 1009,5 hPa 0,0 l/m 9,0 km/h (2 Bft) S-SO 157 18,2 C 30,5 C
29.06.2012 14:41 30,6 C 47 % 1009,5 hPa 0,0 l/m 3,2 km/h (1 Bft) S-SW 202 18,0 C 30,6 C
29.06.2012 14:46 30,6 C 47 % 1009,6 hPa 0,0 l/m 8,3 km/h (2 Bft) W 270 18,0 C 30,6 C
29.06.2012 14:51 30,6 C 47 % 1009,5 hPa 0,0 l/m 6,1 km/h (2 Bft) W-SW 247 18,0 C 30,6 C
29.06.2012 14:56 30,6 C 47 % 1009,4 hPa 0,0 l/m 9,7 km/h (2 Bft) W-SW 247 18,0 C 30,6 C
29.06.2012 15:01 30,6 C 48 % 1009,4 hPa 0,0 l/m 7,2 km/h (2 Bft) S-SO 157 18,3 C 30,6 C
29.06.2012 15:06 30,8 C 48 % 1009,3 hPa 0,0 l/m 7,2 km/h (2 Bft) S-SW 202 18,5 C 30,8 C
29.06.2012 15:11 30,9 C 47 % 1009,2 hPa 0,0 l/m 14,4 km/h (3 Bft) S-SW 202 18,2 C 30,9 C
29.06.2012 15:16 30,9 C 47 % 1009,1 hPa 0,0 l/m 6,1 km/h (2 Bft) S-SW 202 18,2 C 30,9 C
29.06.2012 15:21 31,1 C 48 % 1009,3 hPa 0,0 l/m 6,5 km/h (2 Bft) S 180 18,8 C 31,1 C
29.06.2012 15:26 31,2 C 47 % 1009,1 hPa 0,0 l/m 9,0 km/h (2 Bft) S-SO 157 18,5 C 31,2 C
29.06.2012 15:31 31,4 C 47 % 1009,0 hPa 0,0 l/m 8,6 km/h (2 Bft) S-SO 157 18,7 C 31,4 C
29.06.2012 15:36 31,4 C 47 % 1009,1 hPa 0,0 l/m 2,9 km/h (1 Bft) SW 225 18,7 C 31,4 C
29.06.2012 15:41 31,6 C 47 % 1008,9 hPa 0,0 l/m 10,8 km/h (2 Bft) S-SO 157 18,9 C 31,6 C
29.06.2012 15:46 31,8 C 47 % 1008,9 hPa 0,0 l/m 9,4 km/h (2 Bft) S 180 19,1 C 31,8 C
29.06.2012 15:51 31,8 C 46 % 1008,8 hPa 0,0 l/m 11,2 km/h (2 Bft) SW 225 18,7 C 31,8 C
29.06.2012 15:56 31,9 C 45 % 1008,9 hPa 0,0 l/m 15,5 km/h (3 Bft) S 180 18,5 C 31,9 C
29.06.2012 16:01 31,9 C 44 % 1008,7 hPa 0,0 l/m 19,1 km/h (3 Bft) S 180 18,1 C 31,9 C
29.06.2012 16:06 31,9 C 44 % 1008,7 hPa 0,0 l/m 2,9 km/h (1 Bft) S 180 18,1 C 31,9 C
29.06.2012 16:11 32,1 C 43 % 1008,8 hPa 0,0 l/m 12,6 km/h (3 Bft) S-SO 157 17,9 C 32,1 C
29.06.2012 16:16 32,3 C 43 % 1008,7 hPa 0,0 l/m 9,7 km/h (2 Bft) S-SW 202 18,1 C 32,3 C
29.06.2012 16:21 32,4 C 44 % 1008,6 hPa 0,0 l/m 5,8 km/h (2 Bft) S 180 18,5 C 32,4 C
29.06.2012 16:26 32,4 C 43 % 1008,6 hPa 0,0 l/m 12,6 km/h (3 Bft) W-SW 247 18,2 C 32,4 C
29.06.2012 16:31 32,4 C 43 % 1008,5 hPa 0,0 l/m 7,2 km/h (2 Bft) SO 135 18,2 C 32,4 C
29.06.2012 16:36 32,4 C 43 % 1008,6 hPa 0,0 l/m 7,2 km/h (2 Bft) SW 225 18,2 C 32,4 C
29.06.2012 16:41 32,2 C 42 % 1008,7 hPa 0,0 l/m 5,0 km/h (1 Bft) S-SO 157 17,6 C 32,2 C
29.06.2012 16:46 31,9 C 43 % 1008,8 hPa 0,0 l/m 5,0 km/h (1 Bft) S-SO 157 17,7 C 31,9 C
29.06.2012 16:51 31,6 C 42 % 1008,8 hPa 0,0 l/m 22,7 km/h (4 Bft) S-SO 157 17,1 C 31,6 C
29.06.2012 16:56 31,4 C 42 % 1008,8 hPa 0,0 l/m 5,0 km/h (1 Bft) SW 225 16,9 C 31,4 C
29.06.2012 17:01 31,1 C 42 % 1008,8 hPa 0,0 l/m 5,4 km/h (1 Bft) S 180 16,6 C 31,1 C
29.06.2012 17:06 30,8 C 43 % 1008,8 hPa 0,0 l/m 11,5 km/h (2 Bft) SW 225 16,7 C 30,8 C
29.06.2012 17:11 30,6 C 43 % 1008,9 hPa 0,0 l/m 7,2 km/h (2 Bft) S 180 16,6 C 30,6 C
29.06.2012 17:16 30,3 C 44 % 1008,8 hPa 0,0 l/m 11,5 km/h (2 Bft) S-SO 157 16,7 C 30,3 C
29.06.2012 17:21 30,2 C 45 % 1008,7 hPa 0,0 l/m 15,8 km/h (3 Bft) S 180 16,9 C 30,2 C
29.06.2012 17:26 30,1 C 45 % 1008,3 hPa 0,0 l/m 9,4 km/h (2 Bft) S 180 16,8 C 30,1 C
29.06.2012 17:31 29,9 C 46 % 1008,0 hPa 0,0 l/m 8,6 km/h (2 Bft) S-SO 157 17,0 C 29,9 C
29.06.2012 17:36 29,8 C 46 % 1008,1 hPa 0,0 l/m 13,0 km/h (3 Bft) S-SW 202 16,9 C 29,8 C
29.06.2012 17:41 29,7 C 47 % 1008,1 hPa 0,0 l/m 5,8 km/h (2 Bft) SO 135 17,2 C 29,7 C
29.06.2012 17:46 29,5 C 48 % 1008,6 hPa 0,0 l/m 10,1 km/h (2 Bft) S 180 17,3 C 29,5 C
29.06.2012 17:51 29,4 C 49 % 1008,7 hPa 0,0 l/m 8,6 km/h (2 Bft) S-SW 202 17,5 C 29,4 C
29.06.2012 17:56 29,3 C 50 % 1008,8 hPa 0,0 l/m 5,4 km/h (1 Bft) SO 135 17,8 C 29,3 C
29.06.2012 18:01 29,1 C 50 % 1008,7 hPa 0,0 l/m 9,7 km/h (2 Bft) S 180 17,6 C 29,1 C
29.06.2012 18:06 29,0 C 51 % 1008,7 hPa 0,0 l/m 7,6 km/h (2 Bft) O-SO 112 17,8 C 29,0 C
29.06.2012 18:11 28,9 C 51 % 1008,7 hPa 0,0 l/m 8,6 km/h (2 Bft) S-SO 157 17,7 C 28,9 C
29.06.2012 18:16 28,8 C 52 % 1008,8 hPa 0,0 l/m 10,1 km/h (2 Bft) S-SO 157 17,9 C 28,8 C
29.06.2012 18:21 28,6 C 53 % 1008,8 hPa 0,0 l/m 9,4 km/h (2 Bft) S 180 18,1 C 28,6 C
29.06.2012 18:26 28,6 C 53 % 1008,6 hPa 0,0 l/m 3,2 km/h (1 Bft) S-SW 202 18,1 C 28,6 C
29.06.2012 18:31 28,4 C 53 % 1008,5 hPa 0,0 l/m 8,6 km/h (2 Bft) SO 135 17,9 C 28,4 C
29.06.2012 18:36 28,3 C 54 % 1008,5 hPa 0,0 l/m 3,6 km/h (1 Bft) SO 135 18,1 C 28,3 C
29.06.2012 18:41 28,2 C 54 % 1008,4 hPa 0,0 l/m 7,9 km/h (2 Bft) S 180 18,0 C 28,2 C
29.06.2012 18:46 28,1 C 55 % 1008,4 hPa 0,0 l/m 4,3 km/h (1 Bft) S-SO 157 18,2 C 28,1 C
29.06.2012 18:51 27,9 C 55 % 1008,4 hPa 0,0 l/m 5,4 km/h (1 Bft) S 180 18,0 C 27,9 C
29.06.2012 18:56 27,8 C 56 % 1008,3 hPa 0,0 l/m 2,9 km/h (1 Bft) S 180 18,2 C 27,8 C
29.06.2012 19:01 27,7 C 55 % 1008,1 hPa 0,0 l/m 6,8 km/h (2 Bft) SO 135 17,8 C 27,7 C
29.06.2012 19:06 27,6 C 56 % 1008,3 hPa 0,0 l/m 5,0 km/h (1 Bft) S-SO 157 18,0 C 27,6 C
29.06.2012 19:11 27,5 C 56 % 1008,4 hPa 0,0 l/m 2,5 km/h (1 Bft) S-SO 157 17,9 C 27,5 C
29.06.2012 19:16 27,4 C 56 % 1008,4 hPa 0,0 l/m 3,2 km/h (1 Bft) S-SO 157 17,8 C 27,4 C
29.06.2012 19:21 27,3 C 57 % 1009,2 hPa 0,0 l/m 25,6 km/h (4 Bft) S-SW 202 18,0 C 27,3 C
29.06.2012 19:26 26,9 C 59 % 1010,3 hPa 0,0 l/m 24,5 km/h (4 Bft) W-SW 247 18,2 C 26,9 C
29.06.2012 19:31 25,9 C 61 % 1009,4 hPa 6,2 l/m 10,1 km/h (2 Bft) N-NW 337 17,8 C 25,9 C
29.06.2012 19:36 24,8 C 65 % 1009,2 hPa 0,5 l/m 8,6 km/h (2 Bft) W-NW 292 17,8 C 24,8 C
29.06.2012 19:41 24,1 C 68 % 1009,1 hPa 0,5 l/m 0,0 km/h (0 Bft) NW 315 17,8 C 24,1 C
29.06.2012 19:46 23,8 C 70 % 1009,2 hPa 0,0 l/m 3,6 km/h (1 Bft) W 270 18,0 C 23,8 C
29.06.2012 19:51 23,6 C 71 % 1009,3 hPa 0,0 l/m 2,5 km/h (1 Bft) S 180 18,0 C 23,6 C
29.06.2012 19:56 23,6 C 72 % 1009,7 hPa 0,0 l/m 4,7 km/h (1 Bft) S-SW 202 18,2 C 23,6 C
29.06.2012 20:01 23,5 C 73 % 1009,3 hPa 0,0 l/m 0,0 km/h (0 Bft) S 180 18,4 C 23,5 C
29.06.2012 20:06 23,4 C 74 % 1009,1 hPa 0,0 l/m 0,0 km/h (0 Bft) SW 225 18,5 C 23,4 C
29.06.2012 20:11 23,3 C 74 % 1008,8 hPa 0,0 l/m 0,0 km/h (0 Bft) W 270 18,4 C 23,3 C
29.06.2012 20:16 23,1 C 75 % 1008,6 hPa 0,0 l/m 0,0 km/h (0 Bft) O-NO 67 18,4 C 23,1 C
29.06.2012 20:21 22,9 C 76 % 1008,7 hPa 0,0 l/m 1,1 km/h (1 Bft) NO 45 18,4 C 22,9 C
29.06.2012 20:26 22,8 C 77 % 1008,9 hPa 0,0 l/m 0,0 km/h (0 Bft) NO 45 18,5 C 22,8 C
29.06.2012 20:31 22,8 C 77 % 1008,8 hPa 0,0 l/m 0,0 km/h (0 Bft) NO 45 18,5 C 22,8 C
29.06.2012 20:36 22,8 C 77 % 1008,9 hPa 0,0 l/m 1,4 km/h (1 Bft) S-SO 157 18,5 C 22,8 C
29.06.2012 20:41 22,9 C 78 % 1009,1 hPa 0,0 l/m 0,0 km/h (0 Bft) S 180 18,9 C 22,9 C
29.06.2012 20:46 22,9 C 78 % 1009,2 hPa 0,0 l/m 0,0 km/h (0 Bft) S 180 18,9 C 22,9 C
29.06.2012 20:51 22,8 C 79 % 1009,4 hPa 0,0 l/m 0,0 km/h (0 Bft) S-SW 202 19,0 C 22,8 C
29.06.2012 20:56 22,7 C 79 % 1009,5 hPa 0,0 l/m 0,0 km/h (0 Bft) SW 225 18,9 C 22,7 C
29.06.2012 21:01 22,6 C 79 % 1009,8 hPa 0,0 l/m 4,3 km/h (1 Bft) W-SW 247 18,8 C 22,6 C
29.06.2012 21:06 22,7 C 80 % 1009,9 hPa 0,0 l/m 1,1 km/h (1 Bft) W 270 19,1 C 22,7 C
29.06.2012 21:11 22,7 C 80 % 1010,2 hPa 0,0 l/m 0,0 km/h (0 Bft) W 270 19,1 C 22,7 C
29.06.2012 21:16 22,6 C 79 % 1010,3 hPa 0,0 l/m 2,5 km/h (1 Bft) W 270 18,8 C 22,6 C
29.06.2012 21:21 22,6 C 79 % 1010,3 hPa 0,0 l/m 0,0 km/h (0 Bft) W 270 18,8 C 22,6 C
29.06.2012 21:26 22,6 C 79 % 1010,2 hPa 0,0 l/m 1,4 km/h (1 Bft) W-NW 292 18,8 C 22,6 C
29.06.2012 21:31 22,4 C 80 % 1010,2 hPa 0,0 l/m 0,0 km/h (0 Bft) NO 45 18,8 C 22,4 C
29.06.2012 21:36 22,1 C 81 % 1010,1 hPa 0,0 l/m 1,1 km/h (1 Bft) NO 45 18,7 C 22,1 C
29.06.2012 21:41 21,9 C 81 % 1010,0 hPa 0,0 l/m 0,0 km/h (0 Bft) O-NO 67 18,5 C 21,9 C
29.06.2012 21:46 21,9 C 81 % 1010,3 hPa 0,0 l/m 0,0 km/h (0 Bft) O-NO 67 18,5 C 21,9 C
29.06.2012 21:51 21,8 C 82 % 1010,4 hPa 0,0 l/m 0,0 km/h (0 Bft) O 90 18,6 C 21,8 C
29.06.2012 21:56 21,9 C 82 % 1010,5 hPa 0,0 l/m 0,0 km/h (0 Bft) S-SO 157 18,7 C 21,9 C
29.06.2012 22:01 22,0 C 82 % 1010,5 hPa 0,0 l/m 0,0 km/h (0 Bft) SO 135 18,8 C 22,0 C
29.06.2012 22:06 22,0 C 82 % 1010,6 hPa 0,0 l/m 0,0 km/h (0 Bft) S-SO 157 18,8 C 22,0 C
29.06.2012 22:11 22,1 C 82 % 1010,5 hPa 0,0 l/m 0,0 km/h (0 Bft) S-SO 157 18,9 C 22,1 C
29.06.2012 22:16 22,1 C 82 % 1010,7 hPa 0,0 l/m 0,0 km/h (0 Bft) SW 225 18,9 C 22,1 C
29.06.2012 22:21 22,1 C 82 % 1010,9 hPa 0,0 l/m 0,0 km/h (0 Bft) S-SW 202 18,9 C 22,1 C
29.06.2012 22:26 21,9 C 82 % 1010,8 hPa 0,0 l/m 1,1 km/h (1 Bft) W 270 18,7 C 21,9 C
29.06.2012 22:31 21,9 C 82 % 1010,4 hPa 0,0 l/m 0,0 km/h (0 Bft) W-SW 247 18,7 C 21,9 C
29.06.2012 22:36 21,8 C 82 % 1010,4 hPa 0,0 l/m 1,8 km/h (1 Bft) W-NW 292 18,6 C 21,8 C
29.06.2012 22:41 21,8 C 82 % 1010,3 hPa 0,0 l/m 2,5 km/h (1 Bft) NO 45 18,6 C 21,8 C
29.06.2012 22:46 21,4 C 83 % 1010,3 hPa 0,0 l/m 0,0 km/h (0 Bft) S 180 18,4 C 21,4 C
29.06.2012 22:51 21,4 C 83 % 1010,3 hPa 0,0 l/m 1,8 km/h (1 Bft) S-SO 157 18,4 C 21,4 C
29.06.2012 22:56 21,4 C 83 % 1010,3 hPa 0,0 l/m 1,8 km/h (1 Bft) SW 225 18,4 C 21,4 C
29.06.2012 23:01 21,3 C 83 % 1010,3 hPa 0,0 l/m 2,5 km/h (1 Bft) SW 225 18,3 C 21,3 C
29.06.2012 23:06 21,3 C 83 % 1010,5 hPa 0,0 l/m 2,9 km/h (1 Bft) S 180 18,3 C 21,3 C
29.06.2012 23:11 21,3 C 83 % 1010,5 hPa 0,0 l/m 0,0 km/h (0 Bft) SW 225 18,3 C 21,3 C
29.06.2012 23:16 21,3 C 83 % 1010,4 hPa 0,0 l/m 0,0 km/h (0 Bft) S-SW 202 18,3 C 21,3 C
29.06.2012 23:21 21,3 C 83 % 1010,5 hPa 0,0 l/m 1,1 km/h (1 Bft) S-SW 202 18,3 C 21,3 C
29.06.2012 23:26 21,3 C 82 % 1010,6 hPa 0,0 l/m 0,0 km/h (0 Bft) SW 225 18,1 C 21,3 C
29.06.2012 23:31 21,1 C 82 % 1010,6 hPa 0,0 l/m 5,8 km/h (2 Bft) SW 225 17,9 C 21,1 C
29.06.2012 23:36 21,1 C 83 % 1010,6 hPa 0,0 l/m 2,2 km/h (1 Bft) S-SW 202 18,1 C 21,1 C
29.06.2012 23:41 21,1 C 83 % 1010,5 hPa 0,0 l/m 0,0 km/h (0 Bft) SW 225 18,1 C 21,1 C
29.06.2012 23:46 21,0 C 83 % 1010,5 hPa 0,0 l/m 1,1 km/h (1 Bft) W-SW 247 18,0 C 21,0 C
29.06.2012 23:51 21,0 C 83 % 1010,5 hPa 0,0 l/m 1,4 km/h (1 Bft) SW 225 18,0 C 21,0 C
29.06.2012 23:56 20,9 C 83 % 1010,6 hPa 0,0 l/m 1,1 km/h (1 Bft) SW 225 17,9 C 20,9 C
_ Min-Zeit 05:21 16:41 17:31 - 02:46 - - 03:41 05:21
Minimum _ 17,2 C 42 % 1008,0 hPa - 0,0 km/h (0 Bft) - - 14,6 C 17,2 C
_ Max-Zeit 16:21 05:01 00:06 19:31 19:21 - - 12:31 16:21
Maximum _ 32,4 C 86 % 1011,8 hPa 6,2 l/m 25,6 km/h
S-SW (4 Bft)
- - 19,1 C 32,4 C
Durchschnitt _ 23,2 C 71 % 1009,9 hPa #7,3 l/m 4,8 km/h (1 Bft) S-SO - 17,2 C 23,2 C
(c) by David Heller